Aeroporto :
LOGIN :

Iscrizione | Disclaimer

   EN    FR    IT 

 










Sommario :    VFR   VFR Marginale   IFR   IFR Intensivo   IFR Molto Intensivo
Visibilità : 
Base nubi : 
>= 8 km
>= 3000ft
5 / 8 km
1000 / 3000 ft
1500m / 5 km
500 / 1000 ft
800 / 1500m
200 / 500 ft
< 800m
< 200 ft
Simboli :   Temporali  Nebbia  Neve Forte  Precipitazioni Forti  Vento > 20 kt
SIGMETs :   Varie  Temporali  Ghiacco  Turbolenza  Onda orograficha  Ceneri Vulcaniche






- Altitudine del aeroporto : 600 ft
- Codice IATA : VIE


LOWW - Vienna Schwechat

ULTIMO METAR :
  • 251550Z 27009KT 240V310 CAVOK 15/M00 Q1001 NOSIG

METARs OBSOLETI :
  • 251520Z 32012KT CAVOK 15/M00 Q1001 NOSIG
  • 251450Z 30012KT CAVOK 16/M01 Q1001 NOSIG
  • 251420Z 29014KT CAVOK 17/M02 Q1002 NOSIG
  • 251350Z 27019KT CAVOK 18/M03 Q1002 NOSIG
  • 251320Z VRB03KT CAVOK 17/04 Q1003 TEMPO 28012KT

TAF TAF LOWW
Valido dal 25 a 15 ore il 26 a 21 ore UTC


251415Z 2515/2621 22008KT CAVOK TX16/2515Z TN05/2621Z
TEMPO 2515/2519 27015G25KT
FM251900 28010KT 9999 FEW040 BKN070
TEMPO 2521/2603 28015G25KT -SHRA FEW020 BKN035
FM260900 29015G25KT CAVOK



MetMap, La meteo Aeronautica in un colpo d'occhio ! - Copyright ORBIFLY Dicembre 2007 - Disclaimer

ORBIFLY MET'MAP TEAM :

Programmazione e sviluppo : Alexandra Zaïnal
Concezione : Baudouin d'Aumeries
Aiuto per la programmazione : Marc-Olivier Méhu
Supporto tecnico e logistico : Manuel Goepfert
Aiuto per la traduzione : Arnaldo La Scala

Contatto : metmap@orbifly.com




FONTI E CREDITI :

   NOAA